Time;durP1;ratioP1;P1;durP2;ratioP2;P2;SDS_P1;SDS_P2;PMS_P1;PMS_P2;Temp;Humidity;BMP_temperature;BMP_pressure;BME280_temperature;BME280_humidity;BME280_pressure;Samples;Min_cycle;Max_cycle;Signal;HPM_P1;HPM_P2
2021/05/20 00:00:47;;;;;;;11.40;7.50;;;;;;;;;;5093348;28;20035;-66
2021/05/20 00:03:13;;;;;;;12.88;7.25;;;;;;;;;;5093510;28;20024;-69
2021/05/20 00:05:39;;;;;;;12.73;7.03;;;;;;;;;;5092905;28;20027;-69
2021/05/20 00:08:05;;;;;;;11.52;6.75;;;;;;;;;;5093204;28;20483;-67
2021/05/20 00:10:31;;;;;;;12.85;7.43;;;;;;;;;;5093387;28;20511;-68
2021/05/20 00:12:57;;;;;;;12.60;7.72;;;;;;;;;;5093139;28;20055;-70
2021/05/20 00:15:23;;;;;;;11.55;8.00;;;;;;;;;;5090453;28;20020;-69
2021/05/20 00:17:49;;;;;;;11.15;7.63;;;;;;;;;;5093012;28;20035;-69
2021/05/20 00:20:15;;;;;;;15.20;8.40;;;;;;;;;;5092481;28;20059;-69
2021/05/20 00:22:42;;;;;;;13.45;7.40;;;;;;;;;;5092121;28;20487;-69
2021/05/20 00:25:08;;;;;;;10.52;7.18;;;;;;;;;;5091948;28;20039;-69
2021/05/20 00:27:34;;;;;;;13.50;6.82;;;;;;;;;;5092196;28;20044;-69
2021/05/20 00:30:00;;;;;;;9.43;6.35;;;;;;;;;;5093207;28;20085;-69
2021/05/20 00:32:26;;;;;;;9.27;6.85;;;;;;;;;;5093115;28;20035;-69
2021/05/20 00:34:52;;;;;;;10.50;6.20;;;;;;;;;;5091720;28;20024;-69
2021/05/20 00:37:18;;;;;;;10.02;6.70;;;;;;;;;;5093120;28;20353;-69
2021/05/20 00:39:44;;;;;;;12.55;7.30;;;;;;;;;;5093044;28;20035;-69
2021/05/20 00:42:11;;;;;;;11.25;7.15;;;;;;;;;;5092901;28;20113;-69
2021/05/20 00:44:49;;;;;;;12.63;7.93;;;;;;;;;;5092733;28;20039;-69
2021/05/20 00:47:18;;;;;;;9.70;7.35;;;;;;;;;;5090421;28;20162;-67
2021/05/20 00:49:43;;;;;;;14.88;8.50;;;;;;;;;;5092440;28;20035;-66
2021/05/20 00:52:09;;;;;;;14.50;8.85;;;;;;;;;;5092329;28;20028;-69
2021/05/20 00:54:35;;;;;;;19.85;10.40;;;;;;;;;;5091133;28;20028;-67
2021/05/20 00:57:03;;;;;;;14.35;8.50;;;;;;;;;;5091966;28;20062;-67
2021/05/20 00:59:29;;;;;;;16.50;9.55;;;;;;;;;;5092396;28;20096;-67
2021/05/20 01:01:55;;;;;;;18.52;9.90;;;;;;;;;;5092251;28;20098;-66
2021/05/20 01:04:21;;;;;;;15.95;9.70;;;;;;;;;;5090140;28;20052;-67
2021/05/20 01:06:47;;;;;;;16.20;9.50;;;;;;;;;;5090961;28;20086;-69
2021/05/20 01:09:13;;;;;;;15.48;9.60;;;;;;;;;;5092740;28;20036;-67
2021/05/20 01:11:40;;;;;;;14.20;9.63;;;;;;;;;;5092581;28;20062;-67
2021/05/20 01:14:10;;;;;;;17.73;9.23;;;;;;;;;;5092650;28;20032;-66
2021/05/20 01:16:37;;;;;;;17.00;9.95;;;;;;;;;;5092559;28;20032;-66
2021/05/20 01:19:03;;;;;;;15.77;9.52;;;;;;;;;;5094634;28;20475;-67
2021/05/20 01:21:29;;;;;;;17.77;9.82;;;;;;;;;;5096595;28;20495;-67
2021/05/20 01:23:55;;;;;;;15.88;10.25;;;;;;;;;;5096629;28;20024;-66
2021/05/20 01:26:22;;;;;;;16.58;10.65;;;;;;;;;;5096540;28;20481;-66
2021/05/20 01:28:48;;;;;;;15.90;9.80;;;;;;;;;;5096384;28;20112;-68
2021/05/20 01:31:14;;;;;;;20.65;10.50;;;;;;;;;;5096449;28;20032;-67
2021/05/20 01:33:40;;;;;;;16.30;10.27;;;;;;;;;;5096211;28;20052;-67
2021/05/20 01:36:06;;;;;;;18.08;10.05;;;;;;;;;;5096382;28;20484;-67
2021/05/20 04:06:10;;;;;;;14.95;8.82;;;;;;;;;;6159786;23;20038;31
2021/05/20 04:08:36;;;;;;;15.18;9.65;;;;;;;;;;4992560;28;20070;-69
2021/05/20 04:11:02;;;;;;;17.73;10.35;;;;;;;;;;4993812;28;20030;-68
2021/05/20 04:13:35;;;;;;;19.23;10.15;;;;;;;;;;4985785;28;20025;-68
2021/05/20 04:16:05;;;;;;;15.43;8.80;;;;;;;;;;4983784;28;20449;-69
2021/05/20 04:18:31;;;;;;;14.73;9.05;;;;;;;;;;4983490;28;20027;-68
2021/05/20 04:20:58;;;;;;;14.00;9.52;;;;;;;;;;4984200;28;20031;-69
2021/05/20 04:23:26;;;;;;;14.38;9.02;;;;;;;;;;4983324;28;20065;-70
2021/05/20 04:25:53;;;;;;;14.43;9.18;;;;;;;;;;4980089;28;20736;-69
2021/05/20 04:28:19;;;;;;;16.48;8.82;;;;;;;;;;4980777;28;20537;-69
2021/05/20 04:30:46;;;;;;;16.40;9.38;;;;;;;;;;4979459;28;20113;-70
2021/05/20 04:33:12;;;;;;;16.60;9.55;;;;;;;;;;4980301;28;20387;-69
2021/05/20 04:35:38;;;;;;;14.50;8.95;;;;;;;;;;4984752;28;20057;-70
2021/05/20 04:38:06;;;;;;;16.13;9.20;;;;;;;;;;4984799;28;20042;-71
2021/05/20 04:40:33;;;;;;;13.73;7.93;;;;;;;;;;4980371;28;20027;-70
2021/05/20 04:42:59;;;;;;;13.60;8.38;;;;;;;;;;4981002;28;20035;-69
2021/05/20 04:45:25;;;;;;;14.23;8.15;;;;;;;;;;4978494;28;20030;-67
2021/05/20 04:47:51;;;;;;;16.95;9.20;;;;;;;;;;4979741;28;20045;-70
2021/05/20 04:50:32;;;;;;;16.55;8.23;;;;;;;;;;4979028;28;20467;-70
2021/05/20 04:53:05;;;;;;;13.80;8.15;;;;;;;;;;4988689;28;20398;-69
2021/05/20 04:55:31;;;;;;;14.52;8.63;;;;;;;;;;4982032;28;20022;-69
2021/05/20 04:57:57;;;;;;;11.68;7.90;;;;;;;;;;4980325;28;20521;-67
2021/05/20 05:00:23;;;;;;;13.43;8.63;;;;;;;;;;4990689;28;20038;-69
2021/05/20 05:02:52;;;;;;;12.77;8.35;;;;;;;;;;5001326;28;20031;-69
2021/05/20 05:05:19;;;;;;;20.15;9.35;;;;;;;;;;5008852;28;20034;-68
2021/05/20 05:10:57;;;;;;;12.35;8.80;;;;;;;;;;4994092;28;20081;-69
2021/05/20 05:13:23;;;;;;;14.15;8.45;;;;;;;;;;4993585;28;20022;-68
2021/05/20 05:15:49;;;;;;;13.10;8.70;;;;;;;;;;4993016;28;20394;-67
2021/05/20 05:18:15;;;;;;;13.90;8.68;;;;;;;;;;5008103;28;20133;-68
2021/05/20 05:20:41;;;;;;;14.32;7.70;;;;;;;;;;4992712;28;20050;-69
2021/05/20 05:23:07;;;;;;;13.60;8.40;;;;;;;;;;4993344;28;20058;-67
2021/05/20 05:25:32;;;;;;;11.30;7.50;;;;;;;;;;4992811;28;20109;-69
2021/05/20 05:27:58;;;;;;;14.13;8.30;;;;;;;;;;4992688;28;20125;-67
2021/05/20 05:33:28;;;;;;;14.30;8.07;;;;;;;;;;4992659;28;20077;-68
2021/05/20 05:35:54;;;;;;;13.23;8.02;;;;;;;;;;5007928;28;20039;-67
2021/05/20 05:38:20;;;;;;;13.93;8.40;;;;;;;;;;4993023;28;20375;-68
2021/05/20 05:40:46;;;;;;;14.40;8.15;;;;;;;;;;4993030;28;20431;-67
2021/05/20 05:43:12;;;;;;;16.25;8.90;;;;;;;;;;4992948;28;20088;-67
2021/05/20 05:45:38;;;;;;;13.75;8.05;;;;;;;;;;4992890;28;20062;-67
2021/05/20 05:48:05;;;;;;;14.73;8.07;;;;;;;;;;4992946;28;20385;-68
2021/05/20 05:50:31;;;;;;;14.18;8.13;;;;;;;;;;5007855;28;20035;-68
2021/05/20 05:53:02;;;;;;;12.75;7.13;;;;;;;;;;4992927;28;20386;-67
2021/05/20 05:55:28;;;;;;;11.15;7.93;;;;;;;;;;5007962;28;20026;-67
2021/05/20 05:57:54;;;;;;;13.63;8.45;;;;;;;;;;4992666;28;20073;-69
2021/05/20 06:00:20;;;;;;;15.25;8.13;;;;;;;;;;4993031;28;20034;-67
2021/05/20 06:02:47;;;;;;;15.43;7.82;;;;;;;;;;4992787;28;20487;-67
2021/05/20 06:05:13;;;;;;;13.48;7.82;;;;;;;;;;5010137;28;20121;-68
2021/05/20 06:07:42;;;;;;;14.27;9.05;;;;;;;;;;4995903;28;20050;-68
2021/05/20 06:10:08;;;;;;;14.60;8.80;;;;;;;;;;4996173;28;20042;-68
2021/05/20 06:12:34;;;;;;;14.27;8.77;;;;;;;;;;4996501;28;20443;-68
2021/05/20 06:15:00;;;;;;;15.07;8.77;;;;;;;;;;4996225;28;20545;-68
2021/05/20 06:17:26;;;;;;;16.05;9.63;;;;;;;;;;4996055;28;20058;-67
2021/05/20 06:19:52;;;;;;;13.38;8.27;;;;;;;;;;4995769;28;20031;-69
2021/05/20 06:22:18;;;;;;;18.77;9.20;;;;;;;;;;4995985;28;20026;-68
2021/05/20 06:24:44;;;;;;;13.77;8.68;;;;;;;;;;4995887;28;20038;-69
2021/05/20 06:27:13;;;;;;;15.77;9.05;;;;;;;;;;4995935;28;20042;-69
2021/05/20 06:29:39;;;;;;;13.13;8.77;;;;;;;;;;4995984;28;20430;-68
2021/05/20 06:32:05;;;;;;;13.52;8.63;;;;;;;;;;4995716;28;20043;-68
2021/05/20 06:34:31;;;;;;;14.35;8.60;;;;;;;;;;4995762;28;20027;-69
2021/05/20 06:36:59;;;;;;;14.77;8.88;;;;;;;;;;4995702;28;20038;-69
2021/05/20 06:39:25;;;;;;;12.82;8.25;;;;;;;;;;4995634;28;20088;-68
2021/05/20 06:41:51;;;;;;;11.18;7.97;;;;;;;;;;4995338;28;20101;-67
2021/05/20 06:44:17;;;;;;;14.80;8.77;;;;;;;;;;4995614;28;20485;-68
2021/05/20 06:46:43;;;;;;;18.48;8.48;;;;;;;;;;4995532;28;20034;-69
2021/05/20 06:49:09;;;;;;;13.35;7.63;;;;;;;;;;4995382;28;20030;-68
2021/05/20 06:51:35;;;;;;;12.25;8.63;;;;;;;;;;4995179;28;20034;-69
2021/05/20 06:54:03;;;;;;;13.48;8.15;;;;;;;;;;4995291;28;20137;-69
2021/05/20 06:56:30;;;;;;;10.80;7.05;;;;;;;;;;4995719;28;20135;-70
2021/05/20 07:01:45;;;;;;;11.23;7.22;;;;;;;;;;4995386;28;20033;-68
2021/05/20 07:04:11;;;;;;;10.45;6.75;;;;;;;;;;5010196;28;20057;-69
2021/05/20 07:06:38;;;;;;;14.48;7.68;;;;;;;;;;4994814;28;20077;-70
2021/05/20 07:09:04;;;;;;;10.57;7.10;;;;;;;;;;5010037;28;20503;-69
2021/05/20 07:11:34;;;;;;;10.52;7.13;;;;;;;;;;5009721;28;20076;-68
2021/05/20 07:14:00;;;;;;;8.65;6.57;;;;;;;;;;5010662;28;20086;-69
2021/05/20 07:16:26;;;;;;;9.50;6.78;;;;;;;;;;4994712;28;20045;-69
2021/05/20 07:18:52;;;;;;;10.60;6.32;;;;;;;;;;4994523;28;20075;-68
2021/05/20 07:21:18;;;;;;;11.40;7.72;;;;;;;;;;4994706;28;20475;-68
2021/05/20 07:23:44;;;;;;;12.02;7.90;;;;;;;;;;4994597;28;20038;-69
2021/05/20 07:26:10;;;;;;;11.38;7.50;;;;;;;;;;4994730;28;20046;-69
2021/05/20 07:28:36;;;;;;;11.27;7.22;;;;;;;;;;4994878;28;20038;-69
2021/05/20 07:31:02;;;;;;;10.27;6.88;;;;;;;;;;4994510;28;20030;-69
2021/05/20 07:33:30;;;;;;;10.45;6.25;;;;;;;;;;4994520;28;20534;-69
2021/05/20 07:35:56;;;;;;;10.30;6.75;;;;;;;;;;5009636;28;20092;-69
2021/05/20 07:38:22;;;;;;;8.05;6.40;;;;;;;;;;4994817;28;20034;-69
2021/05/20 07:40:48;;;;;;;11.45;6.68;;;;;;;;;;4994279;28;20069;-68
2021/05/20 07:43:14;;;;;;;13.85;6.45;;;;;;;;;;4994420;28;20053;-69
2021/05/20 07:45:40;;;;;;;9.88;6.43;;;;;;;;;;4994363;28;20031;-70
2021/05/20 07:48:06;;;;;;;11.02;6.50;;;;;;;;;;4994319;28;20045;-71
2021/05/20 07:50:32;;;;;;;8.93;6.00;;;;;;;;;;4994088;28;20037;-69
2021/05/20 07:52:58;;;;;;;10.32;6.43;;;;;;;;;;4994115;28;20030;-71
2021/05/20 07:55:24;;;;;;;8.93;6.03;;;;;;;;;;4994634;28;20565;-70
2021/05/20 07:57:53;;;;;;;8.38;5.60;;;;;;;;;;5009514;28;20371;-71
2021/05/20 08:00:19;;;;;;;11.25;5.65;;;;;;;;;;4993939;28;20026;-70
2021/05/20 08:03:05;;;;;;;9.82;5.78;;;;;;;;;;4993944;28;20038;-71
2021/05/20 08:05:37;;;;;;;5.78;5.13;;;;;;;;;;4994497;28;20109;-72
2021/05/20 08:08:24;;;;;;;8.70;6.10;;;;;;;;;;4993519;28;20061;-71
2021/05/20 08:11:02;;;;;;;6.40;5.43;;;;;;;;;;5008932;28;20054;-70
2021/05/20 08:13:28;;;;;;;10.57;6.00;;;;;;;;;;5009015;28;20100;-70
2021/05/20 09:24:52;;;;;;;2.78;1.85;;;;;;;;;;5421148;23;20050;-69
2021/05/20 09:27:34;;;;;;;4.68;1.75;;;;;;;;;;5030989;28;20025;-70
2021/05/20 09:30:06;;;;;;;4.13;1.95;;;;;;;;;;5029211;28;20064;-68
2021/05/20 09:32:43;;;;;;;4.72;1.98;;;;;;;;;;5031364;28;20076;-68
2021/05/20 09:35:09;;;;;;;4.22;2.90;;;;;;;;;;5032190;28;20029;-67
2021/05/20 09:37:44;;;;;;;2.60;1.50;;;;;;;;;;5032118;28;20109;-68
2021/05/20 09:40:14;;;;;;;2.00;1.38;;;;;;;;;;5034282;28;20358;-69
2021/05/20 09:42:40;;;;;;;1.83;1.50;;;;;;;;;;5035880;28;20038;-68
2021/05/20 09:45:10;;;;;;;1.95;1.40;;;;;;;;;;5036014;28;20029;-68
2021/05/20 09:47:36;;;;;;;1.83;1.20;;;;;;;;;;5035978;28;20128;-69
2021/05/20 09:50:09;;;;;;;24.15;13.45;;;;;;;;;;5034531;28;20029;-68
2021/05/20 09:52:35;;;;;;;3.83;1.42;;;;;;;;;;5036216;28;20477;-68
2021/05/20 09:55:02;;;;;;;1.88;1.10;;;;;;;;;;5035660;28;20033;-68
2021/05/20 09:57:33;;;;;;;1.92;1.20;;;;;;;;;;5034325;28;20056;-69
2021/05/20 10:00:00;;;;;;;1.20;1.10;;;;;;;;;;5035674;28;20029;-68
2021/05/20 10:02:26;;;;;;;3.33;2.33;;;;;;;;;;5035786;28;20029;-69
2021/05/20 10:04:53;;;;;;;22.17;10.45;;;;;;;;;;5035700;28;20029;-67
2021/05/20 10:07:26;;;;;;;3.75;1.98;;;;;;;;;;5035453;28;20128;-67
2021/05/20 10:09:52;;;;;;;4.97;1.98;;;;;;;;;;5035560;28;20052;-67
2021/05/20 10:12:18;;;;;;;3.47;1.92;;;;;;;;;;5035544;28;20033;-68
2021/05/20 10:14:44;;;;;;;4.97;2.10;;;;;;;;;;5034442;28;20633;-66
2021/05/20 10:17:10;;;;;;;11.18;5.50;;;;;;;;;;5035480;28;20037;-67
2021/05/20 10:19:39;;;;;;;22.30;10.85;;;;;;;;;;5035480;28;20025;-68
2021/05/20 10:22:06;;;;;;;14.43;6.88;;;;;;;;;;5035300;28;20033;-67
2021/05/20 10:24:32;;;;;;;27.23;10.55;;;;;;;;;;5035102;28;20450;-67
2021/05/20 12:03:32;;;;;;;6.25;2.42;;;;;;;;;;5056093;23;20270;-69
2021/05/20 12:05:58;;;;;;;9.65;2.03;;;;;;;;;;5032658;28;20025;-69
2021/05/20 12:08:24;;;;;;;5.50;2.10;;;;;;;;;;5032085;28;20049;-70
2021/05/20 12:10:54;;;;;;;5.47;1.70;;;;;;;;;;5029968;28;20179;-69
2021/05/20 12:13:20;;;;;;;3.72;1.60;;;;;;;;;;5031921;28;20029;-69
2021/05/20 12:15:50;;;;;;;1.65;1.55;;;;;;;;;;5032991;28;20041;-67
2021/05/20 12:18:18;;;;;;;2.63;1.40;;;;;;;;;;5032969;28;20030;-68
2021/05/20 12:20:45;;;;;;;2.47;1.77;;;;;;;;;;5032887;28;20033;-68
2021/05/20 12:23:11;;;;;;;3.90;1.80;;;;;;;;;;5032665;28;20115;-69
2021/05/20 12:25:37;;;;;;;3.97;1.70;;;;;;;;;;5032746;28;20060;-68
2021/05/20 12:28:03;;;;;;;3.50;1.70;;;;;;;;;;5031438;28;20045;-71
2021/05/20 12:30:37;;;;;;;5.50;1.98;;;;;;;;;;5032783;28;20018;-69
2021/05/20 12:33:03;;;;;;;1.92;1.50;;;;;;;;;;5032752;28;20087;-71
2021/05/20 12:35:33;;;;;;;2.58;1.38;;;;;;;;;;5032743;28;20437;-68
2021/05/20 12:37:59;;;;;;;7.82;1.80;;;;;;;;;;5031501;28;20029;-70
2021/05/20 12:40:41;;;;;;;2.15;1.80;;;;;;;;;;5032891;28;20041;-71
2021/05/20 12:43:13;;;;;;;2.97;1.42;;;;;;;;;;5032821;28;20032;-70
2021/05/20 12:45:44;;;;;;;5.90;2.63;;;;;;;;;;5032005;28;20025;-70
2021/05/20 12:48:26;;;;;;;4.32;2.30;;;;;;;;;;5032747;28;20064;-70
2021/05/20 12:50:53;;;;;;;2.55;1.70;;;;;;;;;;5032570;28;20479;-71
2021/05/20 12:53:32;;;;;;;2.05;1.63;;;;;;;;;;5032850;28;20374;-69
2021/05/20 12:56:00;;;;;;;3.40;1.58;;;;;;;;;;5032070;28;20037;-70
2021/05/20 12:58:26;;;;;;;3.55;1.70;;;;;;;;;;5031301;28;20013;-69
2021/05/20 13:01:01;;;;;;;8.57;2.70;;;;;;;;;;5032730;28;20107;-69
2021/05/20 13:03:39;;;;;;;4.30;1.67;;;;;;;;;;5031556;28;20440;-73
2021/05/20 13:06:06;;;;;;;3.92;1.90;;;;;;;;;;5032106;28;20024;-70
2021/05/20 13:08:34;;;;;;;2.25;1.38;;;;;;;;;;5032216;28;20415;-71
2021/05/20 13:11:00;;;;;;;2.10;1.80;;;;;;;;;;5032441;28;20032;-68
2021/05/20 13:13:30;;;;;;;4.80;1.90;;;;;;;;;;5033850;28;20029;-68
2021/05/20 13:16:05;;;;;;;2.85;1.80;;;;;;;;;;5036822;28;20421;-71
2021/05/20 13:18:52;;;;;;;1.85;1.70;;;;;;;;;;5036512;28;20112;-71
2021/05/20 13:23:44;;;;;;;4.63;1.75;;;;;;;;;;5036581;28;20033;-73
2021/05/20 13:26:10;;;;;;;1.83;1.33;;;;;;;;;;5036388;28;20022;-72
2021/05/20 13:28:36;;;;;;;2.47;1.58;;;;;;;;;;5036375;28;20040;-71
2021/05/20 13:31:04;;;;;;;2.03;1.63;;;;;;;;;;5035610;28;20053;-70
2021/05/20 13:33:41;;;;;;;2.33;1.45;;;;;;;;;;5034211;28;20483;-69
2021/05/20 13:36:08;;;;;;;2.63;1.70;;;;;;;;;;5036421;28;20079;-71
2021/05/20 13:38:34;;;;;;;3.50;2.40;;;;;;;;;;5036251;28;20029;-72
2021/05/20 13:41:00;;;;;;;2.58;1.63;;;;;;;;;;5036262;28;20026;-72
2021/05/20 13:43:31;;;;;;;7.85;1.92;;;;;;;;;;5035974;28;20025;-71
2021/05/20 13:45:56;;;;;;;;;;;;;;;;;;5036777;28;20370;-70
2021/05/20 13:48:24;;;;;;;5.28;2.00;;;;;;;;;;5035911;28;19913;-71
2021/05/20 13:50:50;;;;;;;2.95;1.92;;;;;;;;;;5036057;28;20029;-72
2021/05/20 13:53:16;;;;;;;2.22;1.90;;;;;;;;;;5036049;28;20370;-70
2021/05/20 13:55:42;;;;;;;2.47;1.77;;;;;;;;;;5036026;28;20033;-70
2021/05/20 13:58:10;;;;;;;3.70;1.92;;;;;;;;;;5035917;28;20025;-69
2021/05/20 14:00:37;;;;;;;5.50;2.10;;;;;;;;;;5035851;28;20021;-72
2021/05/20 14:03:05;;;;;;;4.25;1.80;;;;;;;;;;5035583;28;20080;-70
2021/05/20 14:05:34;;;;;;;5.50;2.08;;;;;;;;;;5035764;28;20032;-70
2021/05/20 14:08:00;;;;;;;1.90;1.70;;;;;;;;;;5035400;28;20037;-70
2021/05/20 14:10:32;;;;;;;4.93;1.73;;;;;;;;;;5035658;28;20057;-71
2021/05/20 14:12:58;;;;;;;2.55;1.60;;;;;;;;;;5035625;28;20069;-71
2021/05/20 14:15:24;;;;;;;2.17;1.67;;;;;;;;;;5035598;28;20030;-71
2021/05/20 14:17:50;;;;;;;2.45;1.70;;;;;;;;;;5035500;28;20382;-71
2021/05/20 14:20:19;;;;;;;4.28;1.50;;;;;;;;;;5035561;28;20473;-74
2021/05/20 14:22:46;;;;;;;2.00;1.40;;;;;;;;;;5035290;28;20434;-70
2021/05/20 14:25:13;;;;;;;1.70;1.35;;;;;;;;;;5034559;28;20044;-70
2021/05/20 14:27:39;;;;;;;4.90;1.90;;;;;;;;;;5035155;28;20095;-69
2021/05/20 14:30:06;;;;;;;2.08;1.35;;;;;;;;;;5035279;28;20033;-69
2021/05/20 14:32:32;;;;;;;1.63;1.52;;;;;;;;;;5035326;28;20481;-69
2021/05/20 14:34:58;;;;;;;3.17;1.60;;;;;;;;;;5035119;28;20027;-70
2021/05/20 14:37:24;;;;;;;5.13;1.60;;;;;;;;;;5035196;28;20106;-69
2021/05/20 14:39:51;;;;;;;2.55;1.55;;;;;;;;;;5035216;28;20029;-70
2021/05/20 14:42:18;;;;;;;6.47;1.80;;;;;;;;;;5035142;28;20030;-68
2021/05/20 14:44:44;;;;;;;4.53;2.08;;;;;;;;;;5035168;28;20036;-69
2021/05/20 14:47:10;;;;;;;2.83;1.70;;;;;;;;;;5034920;28;20038;-68
2021/05/20 14:49:57;;;;;;;8.40;1.98;;;;;;;;;;5034949;28;20370;-71
2021/05/20 14:58:56;;;;;;;2.67;1.50;;;;;;;;;;5034926;28;20167;-71
2021/05/20 15:06:06;;;;;;;3.25;1.48;;;;;;;;;;5034727;28;20095;-70
2021/05/20 15:08:33;;;;;;;3.85;1.38;;;;;;;;;;5034677;28;20385;-70
2021/05/20 15:13:36;;;;;;;3.85;1.95;;;;;;;;;;5034311;28;20033;-70
2021/05/20 15:16:02;;;;;;;2.55;1.40;;;;;;;;;;5034749;28;20025;-72
2021/05/20 15:18:30;;;;;;;2.90;1.42;;;;;;;;;;5034514;28;20033;-71
2021/05/20 15:20:56;;;;;;;2.65;1.75;;;;;;;;;;5034260;28;20071;-69
2021/05/20 15:23:22;;;;;;;17.05;1.73;;;;;;;;;;5034300;28;20033;-71
2021/05/20 15:25:48;;;;;;;3.67;1.73;;;;;;;;;;5033639;28;20029;-71
2021/05/20 15:28:14;;;;;;;2.95;1.70;;;;;;;;;;5034088;28;20088;-68
2021/05/20 15:30:40;;;;;;;1.83;1.35;;;;;;;;;;5033505;28;20470;-69
2021/05/20 15:33:06;;;;;;;6.70;2.00;;;;;;;;;;5033987;28;20118;-69
2021/05/20 15:35:32;;;;;;;10.82;3.78;;;;;;;;;;5034084;28;20029;-69
2021/05/20 15:37:58;;;;;;;3.65;1.70;;;;;;;;;;5032990;28;20421;-68
2021/05/20 15:40:24;;;;;;;6.35;4.20;;;;;;;;;;5034161;28;20439;-71
2021/05/20 15:42:51;;;;;;;6.68;2.20;;;;;;;;;;5033883;28;20351;-70
2021/05/20 15:45:17;;;;;;;2.53;1.77;;;;;;;;;;5032877;28;20032;-70
2021/05/20 15:48:00;;;;;;;6.78;2.47;;;;;;;;;;5033777;28;20034;-72
2021/05/20 15:50:26;;;;;;;7.47;2.45;;;;;;;;;;5033764;28;20052;-71
2021/05/20 15:52:55;;;;;;;5.03;1.73;;;;;;;;;;5033735;28;20034;-71
2021/05/20 15:55:21;;;;;;;6.13;2.72;;;;;;;;;;5033597;28;20029;-71
2021/05/20 15:57:47;;;;;;;4.40;2.42;;;;;;;;;;5033793;28;20041;-73
2021/05/20 16:00:14;;;;;;;11.00;2.90;;;;;;;;;;5033718;28;20022;-70
2021/05/20 16:02:40;;;;;;;13.55;4.05;;;;;;;;;;5033571;28;20081;-71
2021/05/20 16:05:27;;;;;;;14.43;4.57;;;;;;;;;;5033536;28;20041;-71
2021/05/20 16:08:04;;;;;;;8.05;3.67;;;;;;;;;;5033435;28;20065;-72
2021/05/20 16:10:52;;;;;;;9.25;3.58;;;;;;;;;;5013839;28;20083;-73
2021/05/20 16:15:47;;;;;;;6.32;2.22;;;;;;;;;;5031826;28;20029;-69
2021/05/20 16:18:13;;;;;;;4.53;2.75;;;;;;;;;;5033306;28;20033;-70
2021/05/20 16:20:39;;;;;;;4.68;2.53;;;;;;;;;;5025856;28;20040;-67
2021/05/20 16:38:58;;;;;;;6.43;2.80;;;;;;;;;;5018280;28;20551;-70
2021/05/20 16:41:26;;;;;;;5.32;2.35;;;;;;;;;;5023956;28;20026;-69
2021/05/20 16:43:52;;;;;;;9.70;2.08;;;;;;;;;;5031837;28;20025;-69
2021/05/20 16:46:18;;;;;;;7.13;3.42;;;;;;;;;;5023149;28;20033;-72
2021/05/20 16:48:44;;;;;;;3.33;2.17;;;;;;;;;;5028766;28;20148;-67
2021/05/20 16:51:12;;;;;;;5.30;2.30;;;;;;;;;;5023334;28;20474;-69
2021/05/20 16:53:38;;;;;;;4.90;2.58;;;;;;;;;;5020808;28;20037;-72
2021/05/20 16:56:17;;;;;;;4.72;2.03;;;;;;;;;;5023602;28;20492;-69
2021/05/20 16:58:48;;;;;;;7.07;2.97;;;;;;;;;;5031968;28;20140;-71
2021/05/20 17:01:15;;;;;;;7.80;2.25;;;;;;;;;;5032067;28;20466;-70
2021/05/20 17:03:41;;;;;;;5.90;2.35;;;;;;;;;;5032253;28;20026;-69
2021/05/20 17:06:07;;;;;;;4.97;3.08;;;;;;;;;;5032116;28;20029;-69
2021/05/20 17:08:33;;;;;;;8.75;3.15;;;;;;;;;;5032030;28;20104;-70
2021/05/20 17:11:01;;;;;;;3.95;2.03;;;;;;;;;;5032162;28;20033;-69
2021/05/20 17:13:41;;;;;;;6.78;2.22;;;;;;;;;;5032242;28;20117;-69
2021/05/20 17:16:08;;;;;;;7.05;4.38;;;;;;;;;;5031974;28;20028;-68
2021/05/20 17:18:35;;;;;;;9.90;4.88;;;;;;;;;;5031928;28;20065;-70
2021/05/20 17:21:03;;;;;;;4.25;2.65;;;;;;;;;;5032112;28;20427;-70
2021/05/20 17:23:33;;;;;;;16.65;7.03;;;;;;;;;;5032126;28;20033;-69
2021/05/20 17:26:00;;;;;;;8.00;3.37;;;;;;;;;;5032098;28;20033;-69
2021/05/20 17:28:26;;;;;;;15.20;6.25;;;;;;;;;;5031782;28;20045;-69
2021/05/20 17:30:56;;;;;;;10.90;4.75;;;;;;;;;;5032037;28;20094;-70
2021/05/20 17:33:26;;;;;;;10.27;3.90;;;;;;;;;;5031765;28;20393;-69
2021/05/20 17:35:55;;;;;;;11.18;4.35;;;;;;;;;;5031835;28;20031;-70
2021/05/20 17:38:21;;;;;;;31.70;18.58;;;;;;;;;;5031809;28;20032;-70
2021/05/20 17:40:47;;;;;;;23.02;18.00;;;;;;;;;;5030651;28;20385;-68
2021/05/20 18:06:54;;;;;;;10.07;3.38;;;;;;;;;;4760702;28;20071;-72
2021/05/20 18:09:21;;;;;;;12.52;4.07;;;;;;;;;;5035642;28;20037;-71
2021/05/20 18:14:49;;;;;;;9.20;4.90;;;;;;;;;;5027817;28;20392;-72
2021/05/20 18:17:29;;;;;;;6.38;4.07;;;;;;;;;;5034921;28;20037;-69
2021/05/20 18:22:28;;;;;;;10.13;3.83;;;;;;;;;;5035032;28;20473;-70
2021/05/20 18:24:55;;;;;;;10.23;3.85;;;;;;;;;;5034948;28;20025;-70
2021/05/20 18:27:22;;;;;;;8.85;3.88;;;;;;;;;;5027301;28;20052;-71
2021/05/20 18:30:07;;;;;;;7.25;4.07;;;;;;;;;;5024926;28;20022;-69
2021/05/20 18:32:33;;;;;;;9.05;3.85;;;;;;;;;;5025314;28;20026;-72
2021/05/20 18:35:00;;;;;;;5.55;3.72;;;;;;;;;;5015041;28;20034;-71
2021/05/20 18:37:27;;;;;;;10.02;4.55;;;;;;;;;;5025320;28;20478;-69
2021/05/20 18:40:12;;;;;;;9.25;4.50;;;;;;;;;;5023288;28;20026;-69
2021/05/20 18:42:40;;;;;;;7.35;4.97;;;;;;;;;;5025045;28;20026;-67
2021/05/20 18:45:12;;;;;;;10.68;5.25;;;;;;;;;;5024904;28;20029;-67
2021/05/20 18:47:42;;;;;;;9.88;5.32;;;;;;;;;;5024060;28;20030;-70
2021/05/20 18:50:12;;;;;;;12.02;5.57;;;;;;;;;;5034537;28;20100;-68
2021/05/20 18:52:38;;;;;;;7.97;4.88;;;;;;;;;;5034431;28;20033;-67
2021/05/20 18:55:07;;;;;;;7.43;4.43;;;;;;;;;;5034431;28;20091;-69
2021/05/20 18:57:36;;;;;;;8.15;4.72;;;;;;;;;;5034428;28;20033;-67
2021/05/20 19:00:04;;;;;;;7.60;4.15;;;;;;;;;;5034324;28;20030;-67
2021/05/20 19:02:30;;;;;;;6.53;3.90;;;;;;;;;;5034404;28;20032;-66
2021/05/20 19:04:56;;;;;;;7.53;4.47;;;;;;;;;;5025087;28;20418;-67
2021/05/20 19:07:51;;;;;;;9.93;5.35;;;;;;;;;;5022528;28;20470;-69
2021/05/20 19:10:08;;;;;;;12.30;6.13;;;;;;;;;;5026797;28;20382;-66
2021/05/20 19:12:34;;;;;;;11.18;6.07;;;;;;;;;;5023084;28;20459;-69
2021/05/20 19:15:01;;;;;;;17.65;7.78;;;;;;;;;;5013287;28;20093;-67
2021/05/20 19:17:32;;;;;;;15.38;7.60;;;;;;;;;;5027286;28;20067;-67
2021/05/20 19:20:00;;;;;;;14.77;8.48;;;;;;;;;;5027808;28;20470;-67
2021/05/20 19:22:30;;;;;;;15.82;9.38;;;;;;;;;;5038026;28;20346;-68
2021/05/20 19:24:56;;;;;;;14.32;8.07;;;;;;;;;;5039588;28;20022;-66
2021/05/20 19:27:22;;;;;;;19.13;9.43;;;;;;;;;;5042489;28;20037;-68
2021/05/20 22:02:09;;;;;;;13.60;7.13;;;;;;;;;;5019976;28;20050;-70
2021/05/20 22:04:38;;;;;;;14.20;6.88;;;;;;;;;;5017860;28;20438;-71
2021/05/20 22:13:08;;;;;;;10.40;6.55;;;;;;;;;;5035658;28;20031;-74
2021/05/20 22:15:39;;;;;;;13.98;6.25;;;;;;;;;;5017878;28;20030;-74
2021/05/20 22:18:06;;;;;;;11.43;5.88;;;;;;;;;;5017863;28;20056;-74
2021/05/20 22:20:38;;;;;;;12.38;5.85;;;;;;;;;;5017634;28;20052;-75
2021/05/20 22:23:05;;;;;;;11.23;6.38;;;;;;;;;;5017430;28;20041;-74
2021/05/20 22:25:41;;;;;;;10.90;6.15;;;;;;;;;;5035454;28;20049;-73
2021/05/20 22:28:18;;;;;;;14.48;6.45;;;;;;;;;;5017439;28;20115;-74
2021/05/20 22:31:10;;;;;;;13.48;6.57;;;;;;;;;;5035512;28;20078;-74
2021/05/20 22:33:36;;;;;;;10.57;6.10;;;;;;;;;;5035173;28;20041;-73
2021/05/20 22:36:02;;;;;;;11.95;6.35;;;;;;;;;;5035231;28;20044;-73
2021/05/20 22:38:30;;;;;;;10.55;5.75;;;;;;;;;;5035311;28;20112;-73
2021/05/20 22:40:56;;;;;;;8.82;5.07;;;;;;;;;;5035004;28;20017;-73
2021/05/20 22:43:22;;;;;;;11.82;5.60;;;;;;;;;;5035195;28;20175;-73
2021/05/20 22:45:48;;;;;;;11.77;5.65;;;;;;;;;;5016642;28;20461;-73
2021/05/20 22:48:18;;;;;;;13.15;6.65;;;;;;;;;;5035025;28;20025;-73
2021/05/20 22:50:47;;;;;;;10.32;5.43;;;;;;;;;;5034843;28;20454;-73
2021/05/20 22:53:16;;;;;;;13.77;5.38;;;;;;;;;;5017093;28;20441;-73
2021/05/20 22:55:42;;;;;;;17.10;5.50;;;;;;;;;;5034782;28;20021;-73
2021/05/20 22:58:10;;;;;;;9.27;5.32;;;;;;;;;;5017117;28;20041;-73
2021/05/20 23:00:39;;;;;;;10.35;5.30;;;;;;;;;;5016904;28;20132;-73
2021/05/20 23:03:12;;;;;;;12.43;5.35;;;;;;;;;;5034738;28;20030;-73
2021/05/20 23:05:38;;;;;;;11.35;5.85;;;;;;;;;;5034664;28;20025;-73
2021/05/20 23:08:05;;;;;;;15.10;6.68;;;;;;;;;;5034527;28;20030;-73
2021/05/20 23:10:31;;;;;;;18.20;7.60;;;;;;;;;;5034788;28;20014;-73
2021/05/20 23:12:57;;;;;;;17.15;7.38;;;;;;;;;;5034609;28;20075;-72
2021/05/20 23:15:26;;;;;;;11.82;6.78;;;;;;;;;;5034739;28;20024;-73
